WetterOnline ( https://www.wetteronline.de )

Wetter aktuell Oldenburg

Aktuelles Wetter: Friesoythe-Altenoythe (6m)

6-stündlich | Neueste Meldungen
Ortszeit Temperatur Wetter
So, 05.02. 7:00 1.9° C leichter Regen
So, 05.02. 1:00 1.2° C bedeckt
Sa, 04.02. 19:00 3.0° C wolkig
Sa, 04.02. 13:00 5.4° C leicht bewölkt
Sa, 04.02. 7:00 2.7° C bedeckt
Sa, 04.02. 1:00 6.9° C leichter Regen
Fr, 03.02. 19:00 7.0° C bewölkt
Fr, 03.02. 13:00 9.8° C bedeckt
Ortszeit Temperatur Wetter
So, 05.02. 12:30 4.4° C bedeckt
So, 05.02. 12:20 4.4° C bedeckt
So, 05.02. 12:10 4.1° C bewölkt
So, 05.02. 12:00 4.0° C Sprühregen
So, 05.02. 11:50 4.0° C Sprühregen
So, 05.02. 11:40 3.7° C Sprühregen
So, 05.02. 11:30 3.6° C leichter Regen
So, 05.02. 11:00 3.0° C leichter Regen
So, 05.02. 10:30 2.6° C bewölkt
So, 05.02. 10:00 2.5° C Sprühregen
So, 05.02. 9:30 2.3° C leichter Regen
Ortszeit Relative Feuchte Sichtweite
So, 05.02. 7:00 98% 8 km
So, 05.02. 1:00 88% 35 km
Sa, 04.02. 19:00 84% 55 km
Sa, 04.02. 13:00 74% 65 km
Sa, 04.02. 7:00 92% 40 km
Sa, 04.02. 1:00 83% 6 km
Fr, 03.02. 19:00 78% 19 km
Fr, 03.02. 13:00 69% 22 km
Ortszeit Relative Feuchte Sichtweite
So, 05.02. 12:30 97% 13 km
So, 05.02. 12:20 97% -
So, 05.02. 12:10 97% -
So, 05.02. 12:00 98% 8 km
So, 05.02. 11:50 98% -
So, 05.02. 11:40 99% -
So, 05.02. 11:30 97% 3.8 km
So, 05.02. 11:00 98% 4.6 km
So, 05.02. 10:30 99% 5.0 km
So, 05.02. 10:00 99% 5.0 km
So, 05.02. 9:30 99% 4.1 km
Ortszeit Niederschlagsmenge Niederschlagsart
So, 05.02. 7:00 2 l/m2 in 12 Std. Regen
So, 05.02. 1:00 0.0 l/m2 in 6 Std. -
Sa, 04.02. 19:00 0.0 l/m2 in 12 Std. -
Sa, 04.02. 13:00 0.0 l/m2 in 6 Std. -
Sa, 04.02. 7:00 0.1 l/m2 in 12 Std. Regen
Sa, 04.02. 1:00 0.1 l/m2 in 6 Std. Regen
Fr, 03.02. 19:00 0.0 l/m2 in 12 Std. -
Fr, 03.02. 13:00 0.0 l/m2 in 6 Std. -
Ortszeit Niederschlagsmenge Niederschlagsart
So, 05.02. 12:30 <0.05 l/m2 in 30 Min Schnee
So, 05.02. 12:20 keine Meldung -
So, 05.02. 12:10 keine Meldung -
So, 05.02. 12:00 0.1 l/m2 in 1 Std. Regen
So, 05.02. 11:50 keine Meldung -
So, 05.02. 11:40 keine Meldung -
So, 05.02. 11:30 0.1 l/m2 in 30 Min -
So, 05.02. 11:00 <0.05 l/m2 in 1 Std. Regen
So, 05.02. 10:30 <0.05 l/m2 in 30 Min Schnee
So, 05.02. 10:00 0.3 l/m2 in 1 Std. Regen
So, 05.02. 9:30 0.2 l/m2 in 30 Min -
Ortszeit Stärke Spitze Richtung
km/h Bft. km/h Grad Sektor
So, 05.02. 7:00 6 1 19 150° SO
So, 05.02. 1:00 9 2 13 140° SO
Sa, 04.02. 19:00 7 2 18 120° SO
Sa, 04.02. 13:00 13 3 22 130° SO
Sa, 04.02. 7:00 6 1 26 60° NO
Sa, 04.02. 1:00 18 3 58 320° NW
Fr, 03.02. 19:00 33 5 70 300° NW
Fr, 03.02. 13:00 43 6 72 300° NW
Ortszeit Stärke Spitze Richtung
km/h Bft. km/h Grad Sektor
So, 05.02. 12:30 14 3 25 350° N
So, 05.02. 12:20 14 3 - 350° N
So, 05.02. 12:10 13 3 - 340° N
So, 05.02. 12:00 15 3 22 330° NW
So, 05.02. 11:50 15 3 - 330° NW
So, 05.02. 11:40 13 3 - 320° NW
So, 05.02. 11:30 13 3 22 320° NW
So, 05.02. 11:00 4 1 7 360° N
So, 05.02. 10:30 6 1 7 60° NO
So, 05.02. 10:00 7 2 11 110° O
So, 05.02. 9:30 7 2 11 110° O
Ortszeit Untergrenze Bedeckung Gattung
total tief tief mittel hoch
So, 05.02. 7:00 240 m 8/8 8/8 - - -
So, 05.02. 1:00 1380 m 8/8 8/8 - - -
Sa, 04.02. 19:00 8700 m 8/8 0/8 - - -
Sa, 04.02. 13:00 600 m 7/8 1/8 - - -
Sa, 04.02. 7:00 4500 m 8/8 8/8 - - -
Sa, 04.02. 1:00 630 m 8/8 8/8 - - -
Fr, 03.02. 19:00 3900 m 7/8 7/8 - - -
Fr, 03.02. 13:00 5700 m 8/8 8/8 - - -
Ortszeit Bedeckungsgrad in Achtel und Wolkenuntergrenze
So, 05.02. 12:30 1(210m) 7(900m) 8(1050m)
So, 05.02. 12:20 1(210m) 7(900m) 8(1050m)
So, 05.02. 12:10 7
So, 05.02. 12:00 4(90m) 6(360m) 7(600m)
So, 05.02. 11:50 4(90m) 6(360m) 7(600m)
So, 05.02. 11:40 7
So, 05.02. 11:30 6(90m) 7(870m) 7(1110m)
So, 05.02. 11:00 7(120m) 7(210m)
So, 05.02. 10:30 7(120m)
So, 05.02. 10:00 8(120m)
So, 05.02. 9:30 8(120m)
Ortszeit Luftdruck NN (hPa) Tendenz (hPa in 3 Std.)
So, 05.02. 7:00 1034 - 1,1
So, 05.02. 1:00 1037 - 1,1
Sa, 04.02. 19:00 1039 + 0,4
Sa, 04.02. 13:00 1038 + 0,8
Sa, 04.02. 7:00 1035 + 2,4
Sa, 04.02. 1:00 1029 + 2,4
Fr, 03.02. 19:00 1024 + 2,1
Fr, 03.02. 13:00 1020 + 2,8
Ortszeit Luftdruck NN (hPa) Tendenz (hPa in 3 Std.)
So, 05.02. 12:30 1036 + 2,5
So, 05.02. 12:20 1036 keine Meldung
So, 05.02. 12:10 1036 keine Meldung
So, 05.02. 12:00 1036 + 2,4
So, 05.02. 11:50 1036 keine Meldung
So, 05.02. 11:40 1036 keine Meldung
So, 05.02. 11:30 1036 + 2,2
So, 05.02. 11:00 1035 + 1,4
So, 05.02. 10:30 1035 + 1,1
So, 05.02. 10:00 1034 + 0,1
So, 05.02. 9:30 1034 - 0,6
Ortszeit Schneehöhe (cm)
So, 05.02. 7:00 0
So, 05.02. 1:00 0
Sa, 04.02. 19:00 0
Sa, 04.02. 13:00 0
Sa, 04.02. 7:00 0
Sa, 04.02. 1:00 0
Fr, 03.02. 19:00 0
Fr, 03.02. 13:00 0
Ortszeit Schneehöhe (cm)
So, 05.02. 12:30 0
So, 05.02. 12:20 0
So, 05.02. 12:10 0
So, 05.02. 12:00 0
So, 05.02. 11:50 0
So, 05.02. 11:40 0
So, 05.02. 11:30 0
So, 05.02. 11:00 0
So, 05.02. 10:30 0
So, 05.02. 10:00 0
So, 05.02. 9:30 0
Link zu dieser Seite / Seite empfehlen

Das Wetter in ...